This demonstration page uses our WeatherBlox Daily Observations layout. Learn more.

39.01783, -85.05884

Hourly Observations for March 26, 2020

Temp ( °F °C ) Dew Point ( °F °C ) Humidity (%) Winds ( mph kmh ) Pressure ( in mb ) Visibility ( mi km ) Precip ( " mm )
12:52 am 00:52 Mostly Clear 49 9.4 41 5 74 74 S 6 9 29.93 1014 10 16.0934 0 0
1:52 am 01:52 Partly Cloudy 48 8.9 40 4.4 74 74 S 8 13 29.91 1013 10 16.0934 0 0
2:52 am 02:52 Partly Cloudy 49 9.4 41 5 74 74 S 5 7 29.91 1013 10 16.0934 0 0
3:52 am 03:52 Partly Cloudy 49 9.4 41 5 74 74 SSW 6 9 29.91 1013 10 16.0934 0 0
4:52 am 04:52 Mostly Clear 45 7.2 40 4.4 83 83 SSE 7 11 29.89 1012 10 16.0934 0 0
5:52 am 05:52 Mostly Clear 46 7.8 40 4.4 79 79 S 7 11 29.9 1013 10 16.0934 0 0
6:52 am 06:52 Mostly Clear 46 7.8 40 4.4 79 79 SSW 7 11 29.91 1013 10 16.0934 0 0
7:52 am 07:52 Mostly Cloudy 46 7.8 39 3.9 77 77 S 8 13 29.91 1013 10 16.0934 0 0
8:52 am 08:52 Mostly Cloudy 49 9.4 42 5.6 77 77 S 10 17 29.9 1012 10 16.0934 0 0
9:52 am 09:52 Mostly Cloudy 54 12.2 45 7.2 72 72 SSW 10 17 29.89 1012 10 16.0934 0 0
10:52 am 10:52 Mostly Cloudy 57 13.9 46 7.8 67 67 SW 10 17 29.91 1013 10 16.0934 0 0
11:52 am 11:52 Mostly Cloudy 63 17.2 49 9.4 60 60 SW 16 26 29.9 1013 10 16.0934 0 0
12:52 pm 12:52 Mostly Cloudy 66 18.9 48 8.9 52 52 SW 13 20 29.87 1012 10 16.0934 0 0
1:52 pm 13:52 Mostly Cloudy 68 20 49 9.4 51 51 S 9 15 29.84 1011 10 16.0934 0 0
2:52 pm 14:52 Cloudy 68 20 49 9.4 51 51 S 12 19 29.8 1009 10 16.0934 0 0
3:52 pm 15:52 Cloudy 68 20 50 10 53 53 S 18 30 29.74 1007 10 16.0934 0.001 0.001
4:52 pm 16:52 Cloudy with Light Rain 65 18.3 53 11.7 66 66 S 9 15 29.75 1007 7 11.26538 0.01 0.254
5:52 pm 17:52 Cloudy with Light Rain 63 17.2 54 12.2 73 73 S 13 20 29.69 1006 10 16.0934 0.01 0.254
6:52 pm 18:52 Mostly Cloudy 65 18.3 54 12.2 68 68 S 14 22 29.65 1004 10 16.0934 0.001 0.001
7:52 pm 19:52 Cloudy 63 17.2 54 12.2 73 73 N 9 15 29.72 1006 10 16.0934 0 0
8:52 pm 20:52 Cloudy 62 16.7 54 12.2 75 75 N 5 7 29.7 1006 10 16.0934 0 0
9:52 pm 21:52 Cloudy 62 16.7 54 12.2 75 75 E 3 6 29.69 1005 10 16.0934 0 0
10:52 pm 22:52 Mostly Cloudy 60 15.6 54 12.2 80 80 NNW 8 13 29.72 1006 10 16.0934 0 0
11:52 pm 23:52 Cloudy 60 15.6 53 11.7 78 78 NNW 7 11 29.74 1007 10 16.0934 0 0

Powered by AerisWeather